24A

Jackson County Airport

Sylva, North Carolina, USA
METAR K24A 251925Z AUTO 15005KT 10SM SCT026 BKN037 OVC110 22/18 A3025 RMK AO2 LTG DSNT SE AND NW T02230179
Observed Flight Rules
Sep-25 @ 19:25 UTC (21 minutes ago) Visual Flight Rules
Wind Visibility Clouds
150° at 5 knots 10 miles
  • Scattered at 2,600' AGL
  • Broken at 3,700' AGL
  • Overcast at 11,000' AGL
Temperatures Readings
Current 22°C / 72°F
Dewpoint 18°C / 64°F
Humidity 78%
Altimeter 30.25" Hg
Pressure 1024 hPa
Elevation 871
METAR K24A 251925Z AUTO 15005KT 10SM SCT026 BKN037 OVC110 22/18 A3025 RMK AO2 LTG DSNT SE AND NW T02230179
Observed Flight Rules
Sep-25 @ 19:25 UTC
(21 minutes ago)
VFR
Wind Visibility
150° at 5 knots 10 miles
Clouds
  • Scattered at 2,600' AGL
  • Broken at 3,700' AGL
  • Overcast at 11,000' AGL
Temperature Dewpoint
22°C / 72°F 18°C / 64°F
Humidity Altimeter Pressure
78% 30.25" Hg 1024 hPa